createdAt,value
2023-03-28T00:00:41.892Z,3.80
2023-03-28T00:03:08.788Z,3.80
2023-03-28T00:05:39.394Z,3.80
2023-03-28T00:08:06.397Z,3.70
2023-03-28T00:10:34.473Z,3.70
2023-03-28T00:13:01.215Z,3.60
2023-03-28T00:15:28.111Z,3.60
2023-03-28T00:17:54.922Z,3.60
2023-03-28T00:20:21.663Z,3.60
2023-03-28T00:22:48.414Z,3.60
2023-03-28T00:25:15.134Z,3.60
2023-03-28T00:27:43.179Z,3.60
2023-03-28T00:30:10.564Z,3.50
2023-03-28T00:32:37.334Z,3.60
2023-03-28T00:35:04.764Z,3.50
2023-03-28T00:37:31.625Z,3.50
2023-03-28T00:40:01.311Z,3.60
2023-03-28T00:42:28.175Z,3.60
2023-03-28T00:44:57.059Z,3.60
2023-03-28T00:47:41.221Z,3.60
2023-03-28T00:50:13.574Z,3.60
2023-03-28T00:52:42.611Z,3.60
2023-03-28T00:55:15.525Z,3.60
2023-03-28T00:57:43.994Z,3.60
2023-03-28T01:00:13.634Z,3.60
2023-03-28T01:02:43.632Z,3.60
2023-03-28T01:05:13.387Z,3.60
2023-03-28T01:07:43.660Z,3.50
2023-03-28T01:10:10.984Z,3.50
2023-03-28T01:12:38.490Z,3.50
2023-03-28T01:15:06.633Z,3.60
2023-03-28T01:17:34.876Z,3.60
2023-03-28T01:20:16.857Z,3.50
2023-03-28T01:23:21.966Z,3.50
2023-03-28T01:26:32.925Z,3.50
2023-03-28T01:29:35.823Z,3.50
2023-03-28T01:32:32.843Z,3.50
2023-03-28T01:35:56.245Z,3.50
2023-03-28T01:38:34.165Z,3.40
2023-03-28T01:41:07.630Z,3.40
2023-03-28T01:43:46.442Z,3.30
2023-03-28T01:46:17.137Z,3.30
2023-03-28T01:48:55.458Z,3.30
2023-03-28T01:51:30.823Z,3.30
2023-03-28T01:54:05.052Z,3.30
2023-03-28T01:56:39.476Z,3.30
2023-03-28T01:59:13.326Z,3.30
2023-03-28T02:01:45.224Z,3.30
2023-03-28T02:04:19.876Z,3.30
2023-03-28T02:06:49.153Z,3.20
2023-03-28T02:09:20.837Z,3.20
2023-03-28T02:11:49.701Z,3.20
2023-03-28T02:14:22.043Z,3.20
2023-03-28T02:16:52.662Z,3.20
2023-03-28T02:19:21.556Z,3.10
2023-03-28T02:21:53.509Z,3.20
2023-03-28T02:24:21.579Z,3.20
2023-03-28T02:26:48.402Z,3.30
2023-03-28T02:29:16.440Z,3.30
2023-03-28T02:31:43.367Z,3.30
2023-03-28T02:34:10.060Z,3.30
2023-03-28T02:36:51.723Z,3.30
2023-03-28T02:39:43.395Z,3.30
2023-03-28T02:42:53.248Z,3.30
2023-03-28T02:45:46.279Z,3.30
2023-03-28T02:48:21.674Z,3.20
2023-03-28T02:50:56.020Z,3.20
2023-03-28T02:53:30.536Z,3.10
2023-03-28T02:56:04.876Z,3.10
2023-03-28T02:58:36.799Z,3.10
2023-03-28T03:01:04.908Z,3.10
2023-03-28T03:03:31.949Z,3.10
2023-03-28T03:05:58.930Z,3.10
2023-03-28T03:08:27.197Z,3.10
2023-03-28T03:10:53.933Z,3.10
2023-03-28T03:13:22.250Z,3.10
2023-03-28T03:15:49.654Z,3.00
2023-03-28T03:18:16.483Z,3.00
2023-03-28T03:20:43.342Z,3.00
2023-03-28T03:23:10.106Z,3.00
2023-03-28T03:25:36.836Z,3.00
2023-03-28T03:28:03.745Z,3.10
2023-03-28T03:30:32.134Z,3.10
2023-03-28T03:32:58.938Z,3.00
2023-03-28T03:35:25.673Z,3.10
2023-03-28T03:37:52.378Z,3.10
2023-03-28T03:40:19.251Z,3.00
2023-03-28T03:42:45.996Z,3.10
2023-03-28T03:45:12.929Z,3.00
2023-03-28T03:47:41.015Z,3.00
2023-03-28T03:50:08.722Z,3.00
2023-03-28T03:52:35.921Z,3.00
2023-03-28T03:55:02.772Z,3.00
2023-03-28T03:57:29.483Z,2.90
2023-03-28T03:59:56.237Z,2.90
2023-03-28T04:02:23.016Z,2.80
2023-03-28T04:04:51.073Z,2.80
2023-03-28T04:07:17.795Z,2.70
2023-03-28T04:09:44.505Z,2.70
2023-03-28T04:12:11.926Z,2.60
2023-03-28T04:14:38.661Z,2.60
2023-03-28T04:17:05.353Z,2.60
2023-03-28T04:19:32.052Z,2.60
2023-03-28T04:22:00.132Z,2.60
2023-03-28T04:24:27.002Z,2.60
2023-03-28T04:26:53.703Z,2.60
2023-03-28T04:29:20.420Z,2.60
2023-03-28T04:31:47.233Z,2.60
2023-03-28T04:34:14.005Z,2.70
2023-03-28T04:36:40.719Z,2.70
2023-03-28T04:39:08.768Z,2.70
2023-03-28T04:41:35.500Z,2.70
2023-03-28T04:44:02.362Z,2.70
2023-03-28T04:46:29.067Z,2.70
2023-03-28T04:48:56.574Z,2.70
2023-03-28T04:51:23.756Z,2.70
2023-03-28T04:53:50.448Z,2.60
2023-03-28T04:56:18.497Z,2.60
2023-03-28T04:58:45.279Z,2.50
2023-03-28T05:01:12.004Z,2.60
2023-03-28T05:03:38.772Z,2.60
2023-03-28T05:06:05.904Z,2.50
2023-03-28T05:08:32.662Z,2.50
2023-03-28T05:10:59.563Z,2.40
2023-03-28T05:13:27.833Z,2.40
2023-03-28T05:15:54.874Z,2.40
2023-03-28T05:18:21.744Z,2.40
2023-03-28T05:20:48.449Z,2.40
2023-03-28T05:23:15.168Z,2.30
2023-03-28T05:25:42.021Z,2.30
2023-03-28T05:28:08.779Z,2.20
2023-03-28T05:30:36.905Z,2.30
2023-03-28T05:33:03.835Z,2.30
2023-03-28T05:35:30.699Z,2.30
2023-03-28T05:37:57.460Z,2.40
2023-03-28T05:40:24.453Z,2.40
2023-03-28T05:42:51.404Z,2.50
2023-03-28T05:45:18.157Z,2.50
2023-03-28T05:47:46.376Z,2.50
2023-03-28T05:50:13.128Z,2.50
2023-03-28T05:52:39.877Z,2.50
2023-03-28T05:55:07.608Z,2.60
2023-03-28T05:57:34.433Z,2.60
2023-03-28T06:00:01.180Z,2.60
2023-03-28T06:02:28.286Z,2.60
2023-03-28T06:04:56.561Z,2.60
2023-03-28T06:07:35.276Z,2.70
2023-03-28T06:10:07.983Z,2.70
2023-03-28T06:12:34.717Z,2.80
2023-03-28T06:15:01.521Z,2.80
2023-03-28T06:17:28.357Z,2.80
2023-03-28T06:19:56.495Z,2.80
2023-03-28T06:22:23.455Z,2.80
2023-03-28T06:24:50.232Z,2.90
2023-03-28T06:27:16.962Z,2.90
2023-03-28T06:29:43.658Z,3.00
2023-03-28T06:32:10.368Z,2.90
2023-03-28T06:34:37.069Z,2.90
2023-03-28T06:37:05.145Z,3.00
2023-03-28T06:39:31.845Z,3.00
2023-03-28T06:41:58.535Z,3.00
2023-03-28T06:44:25.240Z,3.00
2023-03-28T06:46:51.986Z,3.00
2023-03-28T06:49:18.833Z,3.00
2023-03-28T06:51:45.530Z,3.10
2023-03-28T06:54:13.568Z,3.10
2023-03-28T06:56:40.332Z,3.20
2023-03-28T06:59:07.109Z,3.20
2023-03-28T07:01:33.823Z,3.30
2023-03-28T07:04:00.791Z,3.30
2023-03-28T07:06:27.825Z,3.30
2023-03-28T07:08:56.056Z,3.40
2023-03-28T07:11:24.477Z,3.40
2023-03-28T07:13:51.206Z,3.40
2023-03-28T07:16:18.314Z,3.40
2023-03-28T07:18:45.113Z,3.40
2023-03-28T07:21:13.832Z,3.40
2023-03-28T07:23:40.620Z,3.40
2023-03-28T07:26:09.028Z,3.40
2023-03-28T07:28:37.242Z,3.40
2023-03-28T07:31:04.893Z,3.40
2023-03-28T07:33:36.805Z,3.40
2023-03-28T07:36:09.800Z,3.50
2023-03-28T07:38:36.565Z,3.50
2023-03-28T07:41:03.358Z,3.50
2023-03-28T07:43:30.298Z,3.60
2023-03-28T07:46:01.827Z,3.50
2023-03-28T07:48:29.126Z,3.60
2023-03-28T07:50:55.892Z,3.60
2023-03-28T07:53:22.678Z,3.60
2023-03-28T07:55:55.122Z,3.60
2023-03-28T07:58:22.967Z,3.60
2023-03-28T08:00:49.941Z,3.60
2023-03-28T08:03:18.377Z,3.60
2023-03-28T08:05:45.762Z,3.70
2023-03-28T08:08:12.514Z,3.70
2023-03-28T08:10:39.199Z,3.80
2023-03-28T08:13:05.936Z,3.80
2023-03-28T08:15:32.680Z,3.80
2023-03-28T08:17:59.433Z,3.80
2023-03-28T08:20:27.593Z,3.90
2023-03-28T08:22:54.355Z,3.90
2023-03-28T08:25:21.084Z,3.90
2023-03-28T08:27:47.797Z,4.00
2023-03-28T08:30:14.653Z,4.00
2023-03-28T08:32:41.443Z,4.00
2023-03-28T08:35:08.706Z,4.10
2023-03-28T08:37:36.744Z,4.10
2023-03-28T08:40:04.086Z,4.10
2023-03-28T08:42:59.236Z,4.10
2023-03-28T08:45:42.597Z,4.00
2023-03-28T08:48:17.849Z,4.10
2023-03-28T08:50:47.813Z,4.10
2023-03-28T08:53:23.998Z,4.10
2023-03-28T08:55:53.793Z,4.10
2023-03-28T08:58:21.504Z,4.10
2023-03-28T09:00:49.618Z,4.10
2023-03-28T09:03:19.757Z,4.10
2023-03-28T09:05:49.662Z,4.10
2023-03-28T09:08:37.583Z,4.20
2023-03-28T09:11:14.705Z,4.20
2023-03-28T09:13:50.779Z,4.20
2023-03-28T09:16:42.001Z,4.20
2023-03-28T09:19:18.242Z,4.20
2023-03-28T09:22:12.793Z,4.20
2023-03-28T09:24:59.774Z,4.20
2023-03-28T09:27:32.461Z,4.30
2023-03-28T09:30:09.728Z,4.30
2023-03-28T09:32:39.718Z,4.30
2023-03-28T09:35:16.220Z,4.40
2023-03-28T09:37:46.699Z,4.40
2023-03-28T09:40:20.166Z,4.40
2023-03-28T09:42:56.646Z,4.40
2023-03-28T09:45:36.126Z,4.40
2023-03-28T09:48:03.689Z,4.40
2023-03-28T09:50:31.065Z,4.40
2023-03-28T09:52:58.677Z,4.40
2023-03-28T09:55:29.604Z,4.40
2023-03-28T09:58:05.338Z,4.40
2023-03-28T10:00:35.900Z,4.40
2023-03-28T10:03:02.973Z,4.40
2023-03-28T10:05:34.244Z,4.40
2023-03-28T10:08:04.933Z,4.40
2023-03-28T10:10:32.968Z,4.50
2023-03-28T10:13:03.705Z,4.50
2023-03-28T10:15:39.164Z,4.50
2023-03-28T10:18:06.340Z,4.60
2023-03-28T10:20:36.750Z,4.60
2023-03-28T10:23:04.634Z,4.60
2023-03-28T10:25:39.317Z,4.60
2023-03-28T10:28:12.040Z,4.70
2023-03-28T10:30:38.863Z,4.80
2023-03-28T10:33:20.535Z,4.80
2023-03-28T10:35:54.031Z,4.70
2023-03-28T10:38:23.300Z,4.70
2023-03-28T10:40:58.735Z,4.70
2023-03-28T10:43:32.797Z,4.80
2023-03-28T10:46:01.459Z,4.80
2023-03-28T10:48:31.241Z,4.70
2023-03-28T10:51:04.756Z,4.80
2023-03-28T10:53:39.602Z,4.80
2023-03-28T10:56:24.186Z,4.80
2023-03-28T10:59:04.531Z,4.80
2023-03-28T11:01:41.007Z,4.80
2023-03-28T11:04:19.432Z,4.80
2023-03-28T11:06:53.583Z,4.90
2023-03-28T11:09:25.533Z,4.90
2023-03-28T11:12:05.778Z,4.90
2023-03-28T11:14:45.478Z,4.90
2023-03-28T11:17:20.418Z,4.90
2023-03-28T11:20:06.561Z,4.90
2023-03-28T11:22:49.667Z,5.00
2023-03-28T11:25:23.458Z,5.00
2023-03-28T11:27:58.757Z,5.00
2023-03-28T11:30:30.526Z,5.00
2023-03-28T11:33:02.370Z,5.00
2023-03-28T11:35:32.888Z,5.00
2023-03-28T11:38:02.379Z,5.00
2023-03-28T11:40:33.633Z,5.00
2023-03-28T11:43:04.589Z,5.10
2023-03-28T11:45:49.589Z,5.10
2023-03-28T11:48:23.111Z,5.10
2023-03-28T11:50:58.802Z,5.10
2023-03-28T11:53:30.476Z,5.00
2023-03-28T11:56:02.544Z,5.10
2023-03-28T11:58:35.313Z,5.10
2023-03-28T12:01:07.287Z,5.20
2023-03-28T12:03:39.601Z,5.20
2023-03-28T12:06:12.497Z,5.20
2023-03-28T12:08:42.048Z,5.20
2023-03-28T12:11:15.130Z,5.20
2023-03-28T12:13:55.466Z,5.30
2023-03-28T12:16:30.627Z,5.30
2023-03-28T12:18:59.356Z,5.30
2023-03-28T12:21:32.480Z,5.40
2023-03-28T12:24:07.035Z,5.40
2023-03-28T12:26:48.358Z,5.40
2023-03-28T12:29:23.941Z,5.40
2023-03-28T12:31:53.748Z,5.50
2023-03-28T12:34:27.906Z,5.50
2023-03-28T12:37:01.663Z,5.50
2023-03-28T12:39:35.837Z,5.50
2023-03-28T12:42:04.503Z,5.60
2023-03-28T12:44:40.929Z,5.60
2023-03-28T12:47:14.505Z,5.60
2023-03-28T12:49:45.507Z,5.60
2023-03-28T12:52:15.697Z,5.60
2023-03-28T12:54:59.578Z,5.70
2023-03-28T12:57:45.596Z,5.60
2023-03-28T13:00:24.663Z,5.70
2023-03-28T13:03:01.042Z,5.70
2023-03-28T13:05:38.462Z,5.70
2023-03-28T13:08:15.108Z,5.70
2023-03-28T13:10:44.817Z,5.70
2023-03-28T13:13:21.498Z,5.70
2023-03-28T13:16:04.124Z,5.80
2023-03-28T13:18:32.644Z,5.80
2023-03-28T13:21:00.812Z,5.80
2023-03-28T13:23:31.379Z,5.80
2023-03-28T13:25:59.670Z,5.80
2023-03-28T13:28:30.666Z,5.80
2023-03-28T13:31:07.973Z,5.90
2023-03-28T13:33:36.404Z,5.90
2023-03-28T13:36:18.385Z,5.90
2023-03-28T13:38:46.769Z,5.90
2023-03-28T13:41:43.285Z,5.90
2023-03-28T13:44:13.946Z,5.90
2023-03-28T13:46:43.743Z,5.90
2023-03-28T13:49:18.910Z,6.00
2023-03-28T13:51:49.925Z,6.00
2023-03-28T13:54:16.716Z,6.00
2023-03-28T13:56:44.706Z,6.00
2023-03-28T13:59:15.137Z,6.00
2023-03-28T14:01:49.442Z,6.00
2023-03-28T14:04:18.356Z,6.00
2023-03-28T14:06:45.177Z,6.00
2023-03-28T14:09:15.269Z,6.00
2023-03-28T14:11:43.169Z,6.10
2023-03-28T14:14:15.864Z,6.10
2023-03-28T14:16:43.851Z,6.10
2023-03-28T14:19:16.508Z,6.10
2023-03-28T14:21:43.569Z,6.10
2023-03-28T14:24:15.668Z,6.10
2023-03-28T14:26:42.765Z,6.10
2023-03-28T14:29:12.683Z,6.10
2023-03-28T14:31:41.016Z,6.10
2023-03-28T14:34:17.756Z,6.20
2023-03-28T14:36:55.005Z,6.20
2023-03-28T14:39:21.732Z,6.20
2023-03-28T14:41:48.465Z,6.20
2023-03-28T14:44:15.958Z,6.20
2023-03-28T14:46:43.244Z,6.20
2023-03-28T14:49:17.933Z,6.20
2023-03-28T14:51:47.996Z,6.20
2023-03-28T14:54:21.641Z,6.30
2023-03-28T14:56:49.158Z,6.30
2023-03-28T14:59:17.838Z,6.20
2023-03-28T15:01:47.328Z,6.30
2023-03-28T15:04:19.201Z,6.30
2023-03-28T15:06:53.331Z,6.30
2023-03-28T15:09:22.950Z,6.30
2023-03-28T15:11:49.772Z,6.30
2023-03-28T15:14:23.833Z,6.30
2023-03-28T15:16:50.501Z,6.30
2023-03-28T15:19:22.095Z,6.30
2023-03-28T15:21:55.180Z,6.30
2023-03-28T15:24:24.830Z,6.30
2023-03-28T15:26:55.672Z,6.30
2023-03-28T15:29:24.044Z,6.30
2023-03-28T15:31:52.468Z,6.30
2023-03-28T15:34:22.214Z,6.30
2023-03-28T15:36:50.336Z,6.30
2023-03-28T15:39:21.898Z,6.30
2023-03-28T15:41:52.214Z,6.30
2023-03-28T15:44:26.537Z,6.30
2023-03-28T15:46:54.908Z,6.30
2023-03-28T15:49:23.095Z,6.30
2023-03-28T15:51:53.329Z,6.30
2023-03-28T15:54:30.257Z,6.30
2023-03-28T15:57:00.718Z,6.30
2023-03-28T15:59:31.970Z,6.30
2023-03-28T16:02:28.424Z,6.30
2023-03-28T16:05:01.726Z,6.30
2023-03-28T16:07:33.971Z,6.30
2023-03-28T16:10:00.710Z,6.30
2023-03-28T16:12:27.875Z,6.40
2023-03-28T16:14:55.129Z,6.40
2023-03-28T16:17:23.876Z,6.40
2023-03-28T16:19:50.705Z,6.40
2023-03-28T16:22:18.760Z,6.40
2023-03-28T16:24:45.452Z,6.40
2023-03-28T16:27:12.162Z,6.50
2023-03-28T16:29:38.848Z,6.50
2023-03-28T16:32:06.235Z,6.50
2023-03-28T16:34:33.077Z,6.50
2023-03-28T16:36:59.802Z,6.50
2023-03-28T16:39:27.856Z,6.50
2023-03-28T16:41:54.516Z,6.50
2023-03-28T16:44:21.212Z,6.50
2023-03-28T16:46:47.894Z,6.50
2023-03-28T16:49:14.595Z,6.50
2023-03-28T16:51:41.289Z,6.50
2023-03-28T16:54:08.198Z,6.50
2023-03-28T16:56:37.058Z,6.50
2023-03-28T16:59:04.106Z,6.50
2023-03-28T17:01:31.316Z,6.50
2023-03-28T17:03:58.387Z,6.50
2023-03-28T17:06:25.144Z,6.50
2023-03-28T17:08:51.830Z,6.40
2023-03-28T17:11:18.654Z,6.40
2023-03-28T17:13:49.959Z,6.40
2023-03-28T17:16:16.707Z,6.40
2023-03-28T17:18:43.509Z,6.40
2023-03-28T17:21:12.066Z,6.40
2023-03-28T17:23:40.524Z,6.40
2023-03-28T17:26:08.499Z,6.40
2023-03-28T17:28:36.078Z,6.40
2023-03-28T17:31:07.090Z,6.40
2023-03-28T17:33:34.254Z,6.40
2023-03-28T17:36:11.091Z,6.40
2023-03-28T17:38:37.820Z,6.40
2023-03-28T17:41:04.704Z,6.40
2023-03-28T17:43:31.411Z,6.40
2023-03-28T17:45:58.240Z,6.30
2023-03-28T17:48:26.420Z,6.30
2023-03-28T17:50:53.459Z,6.30
2023-03-28T17:53:20.265Z,6.30
2023-03-28T17:55:47.654Z,6.30
2023-03-28T17:58:14.474Z,6.20
2023-03-28T18:00:41.249Z,6.20
2023-03-28T18:03:10.319Z,6.20
2023-03-28T18:05:49.429Z,6.20
2023-03-28T18:08:16.202Z,6.10
2023-03-28T18:10:43.120Z,6.10
2023-03-28T18:13:09.920Z,6.10
2023-03-28T18:15:36.711Z,6.10
2023-03-28T18:18:03.674Z,6.00
2023-03-28T18:20:30.456Z,6.00
2023-03-28T18:22:58.580Z,6.00
2023-03-28T18:25:25.397Z,6.00
2023-03-28T18:27:52.126Z,5.90
2023-03-28T18:30:18.915Z,5.90
2023-03-28T18:32:45.849Z,5.90
2023-03-28T18:35:12.622Z,5.90
2023-03-28T18:37:39.372Z,5.90
2023-03-28T18:40:08.847Z,5.80
2023-03-28T18:42:35.575Z,5.80
2023-03-28T18:45:02.394Z,5.80
2023-03-28T18:47:29.113Z,5.70
2023-03-28T18:49:55.856Z,5.70
2023-03-28T18:52:22.565Z,5.60
2023-03-28T18:54:49.297Z,5.60
2023-03-28T18:57:17.535Z,5.60
2023-03-28T18:59:44.276Z,5.50
2023-03-28T19:02:12.073Z,5.50
2023-03-28T19:04:39.203Z,5.50
2023-03-28T19:07:05.952Z,5.40
2023-03-28T19:09:32.778Z,5.40
2023-03-28T19:11:59.524Z,5.40
2023-03-28T19:14:27.708Z,5.40
2023-03-28T19:16:54.511Z,5.30
2023-03-28T19:19:21.278Z,5.30
2023-03-28T19:21:47.992Z,5.30
2023-03-28T19:24:15.073Z,5.20
2023-03-28T19:26:41.813Z,5.20
2023-03-28T19:29:08.654Z,5.20
2023-03-28T19:31:36.739Z,5.10
2023-03-28T19:34:03.468Z,5.10
2023-03-28T19:36:30.253Z,5.10
2023-03-28T19:38:56.996Z,5.00
2023-03-28T19:41:24.300Z,5.00
2023-03-28T19:43:51.152Z,4.90
2023-03-28T19:46:20.418Z,4.90
2023-03-28T19:48:48.549Z,4.90
2023-03-28T19:51:15.539Z,4.90
2023-03-28T19:53:42.448Z,4.90
2023-03-28T19:56:09.145Z,4.90
2023-03-28T19:58:35.864Z,4.90
2023-03-28T20:01:02.796Z,4.80
2023-03-28T20:03:29.736Z,4.80
2023-03-28T20:06:03.478Z,4.70
2023-03-28T20:08:30.253Z,4.70
2023-03-28T20:10:57.061Z,4.70
2023-03-28T20:13:23.826Z,4.60
2023-03-28T20:15:50.545Z,4.60
2023-03-28T20:18:19.357Z,4.60
2023-03-28T20:20:48.998Z,4.60
2023-03-28T20:23:17.368Z,4.60
2023-03-28T20:25:44.145Z,4.60
2023-03-28T20:28:10.844Z,4.50
2023-03-28T20:30:37.570Z,4.50
2023-03-28T20:33:04.510Z,4.50
2023-03-28T20:35:31.365Z,4.50
2023-03-28T20:37:58.077Z,4.50
2023-03-28T20:40:26.154Z,4.50
2023-03-28T20:42:53.351Z,4.50
2023-03-28T20:45:20.983Z,4.50
2023-03-28T20:47:47.718Z,4.50
2023-03-28T20:50:14.413Z,4.50
2023-03-28T20:52:41.108Z,4.50
2023-03-28T20:55:09.024Z,4.50
2023-03-28T20:57:37.076Z,4.50
2023-03-28T21:00:04.433Z,4.50
2023-03-28T21:02:31.215Z,4.40
2023-03-28T21:04:57.983Z,4.40
2023-03-28T21:07:24.712Z,4.40
2023-03-28T21:09:51.425Z,4.50
2023-03-28T21:12:18.099Z,4.40
2023-03-28T21:14:46.145Z,4.40
2023-03-28T21:17:12.821Z,4.40
2023-03-28T21:19:39.591Z,4.40
2023-03-28T21:22:06.339Z,4.30
2023-03-28T21:24:33.512Z,4.30
2023-03-28T21:27:00.252Z,4.40
2023-03-28T21:29:27.018Z,4.40
2023-03-28T21:31:55.092Z,4.30
2023-03-28T21:34:21.827Z,4.40
2023-03-28T21:36:48.551Z,4.30
2023-03-28T21:39:15.268Z,4.30
2023-03-28T21:41:42.002Z,4.30
2023-03-28T21:44:08.716Z,4.30
2023-03-28T21:46:35.528Z,4.20
2023-03-28T21:49:03.968Z,4.30
2023-03-28T21:51:30.711Z,4.30
2023-03-28T21:53:57.477Z,4.20
2023-03-28T21:56:24.331Z,4.20
2023-03-28T21:58:51.047Z,4.20
2023-03-28T22:01:17.987Z,4.20
2023-03-28T22:03:45.398Z,4.20
2023-03-28T22:06:15.353Z,4.20
2023-03-28T22:08:42.964Z,4.20
2023-03-28T22:11:12.120Z,4.20
2023-03-28T22:13:38.912Z,4.20
2023-03-28T22:16:06.885Z,4.20
2023-03-28T22:18:33.668Z,4.30
2023-03-28T22:21:00.675Z,4.30
2023-03-28T22:23:28.848Z,4.30
2023-03-28T22:25:55.832Z,4.30
2023-03-28T22:28:22.863Z,4.30
2023-03-28T22:30:50.159Z,4.40
2023-03-28T22:33:16.894Z,4.40
2023-03-28T22:35:43.654Z,4.30
2023-03-28T22:38:10.405Z,4.40
2023-03-28T22:40:38.674Z,4.40
2023-03-28T22:43:05.768Z,4.30
2023-03-28T22:45:32.631Z,4.40
2023-03-28T22:47:59.718Z,4.40
2023-03-28T22:50:27.368Z,4.40
2023-03-28T22:52:54.424Z,4.40
2023-03-28T22:55:23.054Z,4.30
2023-03-28T22:57:51.882Z,4.20
2023-03-28T23:00:19.558Z,4.20
2023-03-28T23:02:46.337Z,4.30
2023-03-28T23:05:13.136Z,4.30
2023-03-28T23:07:39.928Z,4.30
2023-03-28T23:10:10.720Z,4.30
2023-03-28T23:12:37.477Z,4.30
2023-03-28T23:15:06.656Z,4.20
2023-03-28T23:17:33.444Z,4.20
2023-03-28T23:20:00.239Z,4.10
2023-03-28T23:22:27.097Z,4.10
2023-03-28T23:24:53.795Z,4.20
2023-03-28T23:27:20.568Z,4.20
2023-03-28T23:29:47.309Z,4.30
2023-03-28T23:32:15.396Z,4.30
2023-03-28T23:34:42.174Z,4.30
2023-03-28T23:37:08.899Z,4.40
2023-03-28T23:39:35.699Z,4.40
2023-03-28T23:42:02.585Z,4.40
2023-03-28T23:44:29.299Z,4.40
2023-03-28T23:46:56.023Z,4.30
2023-03-28T23:49:24.203Z,4.30
2023-03-28T23:51:51.000Z,4.30
2023-03-28T23:54:17.765Z,4.40
2023-03-28T23:56:44.604Z,4.50
2023-03-28T23:59:11.463Z,4.50
